sensor_id;sensor_type;location;lat;lon;timestamp;pressure;altitude;pressure_sealevel;temperature;humidity
8699;BME280;4386;51.236;6.742;2023-03-20T00:00:50;101535.00;;;11.65;75.93
8699;BME280;4386;51.236;6.742;2023-03-20T00:01:58;101530.50;;;11.65;75.92
8699;BME280;4386;51.236;6.742;2023-03-20T00:03:20;101535.59;;;11.68;75.95
8699;BME280;4386;51.236;6.742;2023-03-20T00:04:42;101547.94;;;11.69;75.91
8699;BME280;4386;51.236;6.742;2023-03-20T00:06:07;101554.97;;;11.70;75.82
8699;BME280;4386;51.236;6.742;2023-03-20T00:07:34;101549.00;;;11.67;75.61
8699;BME280;4386;51.236;6.742;2023-03-20T00:08:56;101541.13;;;11.65;75.78
8699;BME280;4386;51.236;6.742;2023-03-20T00:10:19;101547.41;;;11.64;75.67
8699;BME280;4386;51.236;6.742;2023-03-20T00:11:46;101549.31;;;11.62;75.62
8699;BME280;4386;51.236;6.742;2023-03-20T00:13:13;101555.59;;;11.61;75.70
8699;BME280;4386;51.236;6.742;2023-03-20T00:14:37;101546.84;;;11.59;75.58
8699;BME280;4386;51.236;6.742;2023-03-20T00:15:58;101555.88;;;11.57;75.54
8699;BME280;4386;51.236;6.742;2023-03-20T00:17:21;101559.63;;;11.54;75.64
8699;BME280;4386;51.236;6.742;2023-03-20T00:18:42;101557.81;;;11.55;75.43
8699;BME280;4386;51.236;6.742;2023-03-20T00:20:08;101557.69;;;11.56;75.61
8699;BME280;4386;51.236;6.742;2023-03-20T00:21:34;101557.69;;;11.56;75.53
8699;BME280;4386;51.236;6.742;2023-03-20T00:22:57;101555.97;;;11.55;75.42
8699;BME280;4386;51.236;6.742;2023-03-20T00:24:21;101555.97;;;11.55;75.59
8699;BME280;4386;51.236;6.742;2023-03-20T00:25:43;101556.97;;;11.54;75.37
8699;BME280;4386;51.236;6.742;2023-03-20T00:27:09;101552.59;;;11.53;75.47
8699;BME280;4386;51.236;6.742;2023-03-20T00:28:38;101558.84;;;11.52;75.36
8699;BME280;4386;51.236;6.742;2023-03-20T00:30:04;101558.13;;;11.50;75.04
8699;BME280;4386;51.236;6.742;2023-03-20T00:31:27;101556.41;;;11.49;75.28
8699;BME280;4386;51.236;6.742;2023-03-20T00:32:51;101557.38;;;11.48;75.68
8699;BME280;4386;51.236;6.742;2023-03-20T00:34:14;101560.03;;;11.48;75.39
8699;BME280;4386;51.236;6.742;2023-03-20T00:35:37;101553.03;;;11.47;75.25
8699;BME280;4386;51.236;6.742;2023-03-20T00:37:01;101551.31;;;11.46;75.39
8699;BME280;4386;51.236;6.742;2023-03-20T00:38:26;101553.97;;;11.46;75.66
8699;BME280;4386;51.236;6.742;2023-03-20T00:39:49;101556.63;;;11.46;75.33
8699;BME280;4386;51.236;6.742;2023-03-20T00:41:22;101555.69;;;11.47;75.36
8699;BME280;4386;51.236;6.742;2023-03-20T00:42:49;101556.41;;;11.49;75.48
8699;BME280;4386;51.236;6.742;2023-03-20T00:44:19;101565.13;;;11.51;75.41
8699;BME280;4386;51.236;6.742;2023-03-20T00:45:44;101566.81;;;11.52;75.43
8699;BME280;4386;51.236;6.742;2023-03-20T00:47:11;101563.22;;;11.53;75.34
8699;BME280;4386;51.236;6.742;2023-03-20T00:48:34;101557.91;;;11.53;75.56
8699;BME280;4386;51.236;6.742;2023-03-20T00:49:57;101570.22;;;11.54;75.44
8699;BME280;4386;51.236;6.742;2023-03-20T00:51:19;101568.31;;;11.56;75.41
8699;BME280;4386;51.236;6.742;2023-03-20T00:52:42;101561.13;;;11.58;75.59
8699;BME280;4386;51.236;6.742;2023-03-20T00:54:11;101561.13;;;11.58;75.44
8699;BME280;4386;51.236;6.742;2023-03-20T00:55:34;101559.41;;;11.57;75.32
8699;BME280;4386;51.236;6.742;2023-03-20T00:56:58;101549.72;;;11.56;75.55
8699;BME280;4386;51.236;6.742;2023-03-20T00:58:20;101547.94;;;11.57;75.51
8699;BME280;4386;51.236;6.742;2023-03-20T00:59:49;101547.06;;;11.56;75.45
8699;BME280;4386;51.236;6.742;2023-03-20T01:01:12;101539.22;;;11.55;75.34
8699;BME280;4386;51.236;6.742;2023-03-20T01:02:35;101544.63;;;11.53;75.37
8699;BME280;4386;51.236;6.742;2023-03-20T01:03:57;101542.09;;;11.52;75.14
8699;BME280;4386;51.236;6.742;2023-03-20T01:05:21;101545.56;;;11.52;75.42
8699;BME280;4386;51.236;6.742;2023-03-20T01:06:42;101542.09;;;11.52;75.36
8699;BME280;4386;51.236;6.742;2023-03-20T01:08:11;101540.28;;;11.52;75.43
8699;BME280;4386;51.236;6.742;2023-03-20T01:09:35;101529.66;;;11.52;75.06
8699;BME280;4386;51.236;6.742;2023-03-20T01:10:57;101534.22;;;11.50;75.34
8699;BME280;4386;51.236;6.742;2023-03-20T01:12:20;101533.50;;;11.48;75.18
8699;BME280;4386;51.236;6.742;2023-03-20T01:13:42;101533.50;;;11.48;75.29
8699;BME280;4386;51.236;6.742;2023-03-20T01:15:15;101534.31;;;11.48;75.41
8699;BME280;4386;51.236;6.742;2023-03-20T01:16:37;101529.00;;;11.48;75.33
8699;BME280;4386;51.236;6.742;2023-03-20T01:18:00;101527.34;;;11.47;75.22
8699;BME280;4386;51.236;6.742;2023-03-20T01:19:22;101534.44;;;11.47;75.48
8699;BME280;4386;51.236;6.742;2023-03-20T01:20:44;101532.72;;;11.46;75.28
8699;BME280;4386;51.236;6.742;2023-03-20T01:22:06;101527.53;;;11.44;75.17
8699;BME280;4386;51.236;6.742;2023-03-20T01:23:29;101534.66;;;11.44;75.46
8699;BME280;4386;51.236;6.742;2023-03-20T01:24:58;101532.00;;;11.44;75.26
8699;BME280;4386;51.236;6.742;2023-03-20T01:26:23;101534.66;;;11.44;75.42
8699;BME280;4386;51.236;6.742;2023-03-20T01:27:49;101529.22;;;11.45;75.45
8699;BME280;4386;51.236;6.742;2023-03-20T01:29:17;101523.91;;;11.45;75.65
8699;BME280;4386;51.236;6.742;2023-03-20T01:30:40;101525.63;;;11.46;75.50
8699;BME280;4386;51.236;6.742;2023-03-20T01:32:02;101521.16;;;11.47;75.38
8699;BME280;4386;51.236;6.742;2023-03-20T01:33:24;101522.97;;;11.46;75.33
8699;BME280;4386;51.236;6.742;2023-03-20T01:34:48;101522.88;;;11.48;75.36
8699;BME280;4386;51.236;6.742;2023-03-20T01:36:10;101516.59;;;11.49;75.45
8699;BME280;4386;51.236;6.742;2023-03-20T01:37:33;101523.69;;;11.48;75.43
8699;BME280;4386;51.236;6.742;2023-03-20T01:38:56;101513.94;;;11.49;75.18
8699;BME280;4386;51.236;6.742;2023-03-20T01:40:39;101521.81;;;11.50;75.17
8699;BME280;4386;51.236;6.742;2023-03-20T01:42:05;101515.66;;;11.50;75.24
8699;BME280;4386;51.236;6.742;2023-03-20T01:43:27;101510.56;;;11.47;75.39
8699;BME280;4386;51.236;6.742;2023-03-20T01:44:51;101511.41;;;11.47;75.33
8699;BME280;4386;51.236;6.742;2023-03-20T01:46:15;101513.22;;;11.47;74.95
8699;BME280;4386;51.236;6.742;2023-03-20T01:47:39;101508.84;;;11.46;75.24
8699;BME280;4386;51.236;6.742;2023-03-20T01:51:09;101517.16;;;11.41;75.33
8699;BME280;4386;51.236;6.742;2023-03-20T01:52:32;101508.53;;;11.38;75.15
8699;BME280;4386;51.236;6.742;2023-03-20T01:53:56;101510.56;;;11.34;75.52
8699;BME280;4386;51.236;6.742;2023-03-20T01:55:20;101514.38;;;11.30;75.50
8699;BME280;4386;51.236;6.742;2023-03-20T01:56:46;101514.56;;;11.27;75.59
8699;BME280;4386;51.236;6.742;2023-03-20T01:58:13;101517.31;;;11.26;75.48
8699;BME280;4386;51.236;6.742;2023-03-20T01:59:39;101520.31;;;11.21;75.49
8699;BME280;4386;51.236;6.742;2023-03-20T02:01:07;101523.16;;;11.18;75.64
8699;BME280;4386;51.236;6.742;2023-03-20T02:02:32;101518.16;;;11.14;75.62
8699;BME280;4386;51.236;6.742;2023-03-20T02:03:54;101523.66;;;11.11;75.51
8699;BME280;4386;51.236;6.742;2023-03-20T02:05:19;101521.13;;;11.09;75.59
8699;BME280;4386;51.236;6.742;2023-03-20T02:06:42;101523.16;;;11.06;75.73
8699;BME280;4386;51.236;6.742;2023-03-20T02:08:18;101527.69;;;11.04;75.83
8699;BME280;4386;51.236;6.742;2023-03-20T02:09:42;101532.25;;;11.02;75.83
8699;BME280;4386;51.236;6.742;2023-03-20T02:11:05;101528.00;;;10.99;75.93
8699;BME280;4386;51.236;6.742;2023-03-20T02:12:29;101533.41;;;10.97;75.95
8699;BME280;4386;51.236;6.742;2023-03-20T02:13:54;101539.66;;;10.96;75.83
8699;BME280;4386;51.236;6.742;2023-03-20T02:15:18;101536.25;;;10.94;76.04
8699;BME280;4386;51.236;6.742;2023-03-20T02:16:40;101531.91;;;10.93;76.20
8699;BME280;4386;51.236;6.742;2023-03-20T02:18:03;101530.22;;;10.92;76.11
8699;BME280;4386;51.236;6.742;2023-03-20T02:19:28;101534.75;;;10.90;76.24
8699;BME280;4386;51.236;6.742;2023-03-20T02:23:43;101521.50;;;10.90;76.44
8699;BME280;4386;51.236;6.742;2023-03-20T02:27:08;101511.31;;;10.84;76.32
8699;BME280;4386;51.236;6.742;2023-03-20T02:30:47;101516.81;;;10.81;76.42
8699;BME280;4386;51.236;6.742;2023-03-20T02:32:51;101520.41;;;10.80;76.35
8699;BME280;4386;51.236;6.742;2023-03-20T02:34:44;101517.97;;;10.77;76.31
8699;BME280;4386;51.236;6.742;2023-03-20T02:36:45;101526.88;;;10.76;76.42
8699;BME280;4386;51.236;6.742;2023-03-20T02:38:21;101518.16;;;10.74;76.39
8699;BME280;4386;51.236;6.742;2023-03-20T02:39:51;101517.44;;;10.72;76.42
8699;BME280;4386;51.236;6.742;2023-03-20T02:41:22;101517.44;;;10.72;76.11
8699;BME280;4386;51.236;6.742;2023-03-20T02:42:51;101521.97;;;10.70;76.63
8699;BME280;4386;51.236;6.742;2023-03-20T02:44:23;101524.59;;;10.70;76.64
8699;BME280;4386;51.236;6.742;2023-03-20T02:45:33;101530.88;;;10.69;76.60
8699;BME280;4386;51.236;6.742;2023-03-20T02:46:45;101530.03;;;10.69;76.73
8699;BME280;4386;51.236;6.742;2023-03-20T02:47:55;101532.75;;;10.67;76.79
8699;BME280;4386;51.236;6.742;2023-03-20T02:49:08;101530.97;;;10.68;76.89
8699;BME280;4386;51.236;6.742;2023-03-20T02:50:14;101535.41;;;10.67;76.81
8699;BME280;4386;51.236;6.742;2023-03-20T02:51:21;101540.72;;;10.67;76.86
8699;BME280;4386;51.236;6.742;2023-03-20T02:52:32;101529.19;;;10.68;76.85
8699;BME280;4386;51.236;6.742;2023-03-20T02:53:46;101535.22;;;10.70;76.98
8699;BME280;4386;51.236;6.742;2023-03-20T02:54:58;101528.97;;;10.71;77.00
8699;BME280;4386;51.236;6.742;2023-03-20T02:56:12;101533.34;;;10.72;76.92
8699;BME280;4386;51.236;6.742;2023-03-20T02:57:17;101531.63;;;10.71;77.19
8699;BME280;4386;51.236;6.742;2023-03-20T02:58:27;101530.69;;;10.72;77.09
8699;BME280;4386;51.236;6.742;2023-03-20T02:59:34;101527.19;;;10.72;77.08
8699;BME280;4386;51.236;6.742;2023-03-20T03:00:47;101526.31;;;10.71;77.13
8699;BME280;4386;51.236;6.742;2023-03-20T03:01:53;101532.47;;;10.72;77.19
8699;BME280;4386;51.236;6.742;2023-03-20T03:03:03;101526.31;;;10.71;77.19
8699;BME280;4386;51.236;6.742;2023-03-20T03:04:08;101526.31;;;10.71;77.24
8699;BME280;4386;51.236;6.742;2023-03-20T03:05:15;101525.47;;;10.71;77.07
8699;BME280;4386;51.236;6.742;2023-03-20T03:06:22;101535.13;;;10.72;77.14
8699;BME280;4386;51.236;6.742;2023-03-20T03:07:31;101539.56;;;10.71;77.14
8699;BME280;4386;51.236;6.742;2023-03-20T03:08:38;101540.53;;;10.70;77.11
8699;BME280;4386;51.236;6.742;2023-03-20T03:09:46;101537.03;;;10.70;77.06
8699;BME280;4386;51.236;6.742;2023-03-20T03:10:52;101534.41;;;10.70;76.99
8699;BME280;4386;51.236;6.742;2023-03-20T03:12:00;101530.69;;;10.72;77.01
8699;BME280;4386;51.236;6.742;2023-03-20T03:13:04;101522.72;;;10.72;77.10
8699;BME280;4386;51.236;6.742;2023-03-20T03:14:17;101526.31;;;10.71;77.04
8699;BME280;4386;51.236;6.742;2023-03-20T03:15:26;101530.69;;;10.72;77.12
8699;BME280;4386;51.236;6.742;2023-03-20T03:16:34;101523.78;;;10.70;77.09
8699;BME280;4386;51.236;6.742;2023-03-20T03:17:38;101516.78;;;10.69;77.15
8699;BME280;4386;51.236;6.742;2023-03-20T03:18:44;101518.50;;;10.70;77.17
8699;BME280;4386;51.236;6.742;2023-03-20T03:19:49;101504.25;;;10.71;77.19
8699;BME280;4386;51.236;6.742;2023-03-20T03:20:56;101506.91;;;10.71;77.16
8699;BME280;4386;51.236;6.742;2023-03-20T03:21:59;101496.44;;;10.69;77.39
8699;BME280;4386;51.236;6.742;2023-03-20T03:23:03;101494.63;;;10.70;77.28
8699;BME280;4386;51.236;6.742;2023-03-20T03:24:05;101494.72;;;10.68;77.17
8699;BME280;4386;51.236;6.742;2023-03-20T03:25:34;101492.06;;;10.68;77.06
8699;BME280;4386;51.236;6.742;2023-03-20T03:26:38;101500.97;;;10.67;77.22
8699;BME280;4386;51.236;6.742;2023-03-20T03:27:42;101498.31;;;10.67;77.07
8699;BME280;4386;51.236;6.742;2023-03-20T03:28:49;101493.00;;;10.67;77.21
8699;BME280;4386;51.236;6.742;2023-03-20T03:29:55;101488.56;;;10.68;76.93
8699;BME280;4386;51.236;6.742;2023-03-20T03:30:59;101496.63;;;10.66;77.08
8699;BME280;4386;51.236;6.742;2023-03-20T03:32:02;101508.91;;;10.67;77.07
8699;BME280;4386;51.236;6.742;2023-03-20T03:33:13;101509.75;;;10.68;77.08
8699;BME280;4386;51.236;6.742;2023-03-20T03:34:18;101522.16;;;10.67;77.02
8699;BME280;4386;51.236;6.742;2023-03-20T03:35:22;101523.13;;;10.66;77.07
8699;BME280;4386;51.236;6.742;2023-03-20T03:36:34;101516.13;;;10.65;76.96
8699;BME280;4386;51.236;6.742;2023-03-20T03:37:43;101514.34;;;10.66;77.03
8699;BME280;4386;51.236;6.742;2023-03-20T03:38:53;101516.13;;;10.65;77.01
8699;BME280;4386;51.236;6.742;2023-03-20T03:40:07;101518.88;;;10.64;76.99
8699;BME280;4386;51.236;6.742;2023-03-20T03:41:20;101521.63;;;10.62;76.92
8699;BME280;4386;51.236;6.742;2023-03-20T03:42:29;101529.47;;;10.64;76.99
8699;BME280;4386;51.236;6.742;2023-03-20T03:43:38;101534.75;;;10.64;76.96
8699;BME280;4386;51.236;6.742;2023-03-20T03:44:51;101537.53;;;10.62;77.13
8699;BME280;4386;51.236;6.742;2023-03-20T03:45:58;101539.25;;;10.63;76.84
8699;BME280;4386;51.236;6.742;2023-03-20T03:47:05;101534.75;;;10.64;77.05
8699;BME280;4386;51.236;6.742;2023-03-20T03:48:11;101535.63;;;10.64;76.94
8699;BME280;4386;51.236;6.742;2023-03-20T03:49:19;101526.72;;;10.65;77.05
8699;BME280;4386;51.236;6.742;2023-03-20T03:50:25;101526.72;;;10.65;77.01
8699;BME280;4386;51.236;6.742;2023-03-20T03:51:34;101528.44;;;10.66;76.93
8699;BME280;4386;51.236;6.742;2023-03-20T03:52:40;101529.19;;;10.68;76.98
8699;BME280;4386;51.236;6.742;2023-03-20T03:53:46;101534.47;;;10.68;76.71
8699;BME280;4386;51.236;6.742;2023-03-20T03:54:52;101526.44;;;10.70;76.80
8699;BME280;4386;51.236;6.742;2023-03-20T03:56:01;101529.91;;;10.70;76.68
8699;BME280;4386;51.236;6.742;2023-03-20T03:57:06;101533.53;;;10.69;76.66
8699;BME280;4386;51.236;6.742;2023-03-20T03:58:11;101533.41;;;10.71;76.48
8699;BME280;4386;51.236;6.742;2023-03-20T03:59:23;101537.03;;;10.70;76.46
8699;BME280;4386;51.236;6.742;2023-03-20T04:00:31;101536.06;;;10.71;76.29
8699;BME280;4386;51.236;6.742;2023-03-20T04:01:35;101535.22;;;10.70;76.27
8699;BME280;4386;51.236;6.742;2023-03-20T04:02:39;101530.78;;;10.71;76.18
8699;BME280;4386;51.236;6.742;2023-03-20T04:03:45;101526.31;;;10.71;76.22
8699;BME280;4386;51.236;6.742;2023-03-20T04:04:52;101521.03;;;10.71;75.97
8699;BME280;4386;51.236;6.742;2023-03-20T04:05:55;101521.97;;;10.70;75.94
8699;BME280;4386;51.236;6.742;2023-03-20T04:07:09;101524.59;;;10.70;75.92
8699;BME280;4386;51.236;6.742;2023-03-20T04:08:13;101524.72;;;10.69;75.93
8699;BME280;4386;51.236;6.742;2023-03-20T04:09:16;101542.44;;;10.68;75.88
8699;BME280;4386;51.236;6.742;2023-03-20T04:10:26;101538.19;;;10.66;75.73
8699;BME280;4386;51.236;6.742;2023-03-20T04:11:36;101530.31;;;10.64;75.65
8699;BME280;4386;51.236;6.742;2023-03-20T04:12:45;101538.38;;;10.63;75.51
8699;BME280;4386;51.236;6.742;2023-03-20T04:13:49;101532.22;;;10.62;75.57
8699;BME280;4386;51.236;6.742;2023-03-20T04:14:51;101532.31;;;10.61;75.54
8699;BME280;4386;51.236;6.742;2023-03-20T04:15:54;101524.47;;;10.59;75.50
8699;BME280;4386;51.236;6.742;2023-03-20T04:16:56;101537.75;;;10.59;75.50
8699;BME280;4386;51.236;6.742;2023-03-20T04:17:58;101527.13;;;10.59;75.34
8699;BME280;4386;51.236;6.742;2023-03-20T04:19:00;101531.47;;;10.60;75.38
8699;BME280;4386;51.236;6.742;2023-03-20T04:20:03;101517.47;;;10.58;75.38
8699;BME280;4386;51.236;6.742;2023-03-20T04:21:13;101525.44;;;10.58;75.32
8699;BME280;4386;51.236;6.742;2023-03-20T04:22:16;101527.22;;;10.58;75.32
8699;BME280;4386;51.236;6.742;2023-03-20T04:23:17;101515.03;;;10.55;75.07
8699;BME280;4386;51.236;6.742;2023-03-20T04:24:20;101518.63;;;10.54;75.32
8699;BME280;4386;51.236;6.742;2023-03-20T04:25:23;101515.97;;;10.54;75.23
8699;BME280;4386;51.236;6.742;2023-03-20T04:26:27;101511.63;;;10.53;75.33
8699;BME280;4386;51.236;6.742;2023-03-20T04:27:29;101515.31;;;10.51;75.34
8699;BME280;4386;51.236;6.742;2023-03-20T04:28:33;101513.50;;;10.51;75.32
8699;BME280;4386;51.236;6.742;2023-03-20T04:29:34;101501.13;;;10.52;75.21
8699;BME280;4386;51.236;6.742;2023-03-20T04:30:39;101496.69;;;10.52;75.20
8699;BME280;4386;51.236;6.742;2023-03-20T04:31:41;101499.41;;;10.51;75.30
8699;BME280;4386;51.236;6.742;2023-03-20T04:32:43;101500.25;;;10.51;75.08
8699;BME280;4386;51.236;6.742;2023-03-20T04:33:45;101501.97;;;10.52;74.89
8699;BME280;4386;51.236;6.742;2023-03-20T04:34:48;101497.53;;;10.53;75.17
8699;BME280;4386;51.236;6.742;2023-03-20T04:35:49;101494.03;;;10.52;75.08
8699;BME280;4386;51.236;6.742;2023-03-20T04:36:52;101501.13;;;10.52;75.12
8699;BME280;4386;51.236;6.742;2023-03-20T04:37:55;101509.06;;;10.52;75.09
8699;BME280;4386;51.236;6.742;2023-03-20T04:38:59;101502.91;;;10.51;75.02
8699;BME280;4386;51.236;6.742;2023-03-20T04:40:03;101511.72;;;10.52;75.21
8699;BME280;4386;51.236;6.742;2023-03-20T04:41:05;101505.56;;;10.51;75.35
8699;BME280;4386;51.236;6.742;2023-03-20T04:42:08;101509.94;;;10.52;74.99
8699;BME280;4386;51.236;6.742;2023-03-20T04:43:10;101513.50;;;10.51;75.14
8699;BME280;4386;51.236;6.742;2023-03-20T04:44:14;101509.06;;;10.52;75.04
8699;BME280;4386;51.236;6.742;2023-03-20T04:45:16;101502.91;;;10.51;74.98
8699;BME280;4386;51.236;6.742;2023-03-20T04:46:22;101507.28;;;10.52;75.05
8699;BME280;4386;51.236;6.742;2023-03-20T04:47:23;101508.22;;;10.51;74.98
8699;BME280;4386;51.236;6.742;2023-03-20T04:48:26;101510.13;;;10.49;75.09
8699;BME280;4386;51.236;6.742;2023-03-20T04:49:28;101509.34;;;10.47;75.04
8699;BME280;4386;51.236;6.742;2023-03-20T04:50:30;101512.00;;;10.47;75.08
8699;BME280;4386;51.236;6.742;2023-03-20T04:51:32;101506.81;;;10.45;75.09
8699;BME280;4386;51.236;6.742;2023-03-20T04:52:35;101508.53;;;10.47;75.11
8699;BME280;4386;51.236;6.742;2023-03-20T04:53:37;101510.31;;;10.46;75.06
8699;BME280;4386;51.236;6.742;2023-03-20T04:54:39;101513.91;;;10.45;75.21
8699;BME280;4386;51.236;6.742;2023-03-20T04:55:42;101514.78;;;10.45;75.10
8699;BME280;4386;51.236;6.742;2023-03-20T04:56:44;101513.91;;;10.45;74.91
8699;BME280;4386;51.236;6.742;2023-03-20T04:57:47;101511.38;;;10.43;75.13
8699;BME280;4386;51.236;6.742;2023-03-20T04:58:48;101510.53;;;10.43;75.12
8699;BME280;4386;51.236;6.742;2023-03-20T04:59:56;101497.47;;;10.40;75.14
8699;BME280;4386;51.236;6.742;2023-03-20T05:00:58;101508.09;;;10.40;75.07
8699;BME280;4386;51.236;6.742;2023-03-20T05:02:10;101502.00;;;10.38;74.99
8699;BME280;4386;51.236;6.742;2023-03-20T05:03:19;101509.03;;;10.39;74.93
8699;BME280;4386;51.236;6.742;2023-03-20T05:04:24;101504.66;;;10.38;74.85
8699;BME280;4386;51.236;6.742;2023-03-20T05:05:26;101507.31;;;10.38;74.90
8699;BME280;4386;51.236;6.742;2023-03-20T05:06:30;101504.78;;;10.36;75.01
8699;BME280;4386;51.236;6.742;2023-03-20T05:07:32;101500.34;;;10.37;74.97
8699;BME280;4386;51.236;6.742;2023-03-20T05:08:34;101499.56;;;10.35;74.96
8699;BME280;4386;51.236;6.742;2023-03-20T05:09:37;101502.22;;;10.35;75.00
8699;BME280;4386;51.236;6.742;2023-03-20T05:10:39;101506.66;;;10.34;74.95
8699;BME280;4386;51.236;6.742;2023-03-20T05:11:42;101509.41;;;10.33;74.89
8699;BME280;4386;51.236;6.742;2023-03-20T05:12:44;101505.91;;;10.32;75.11
8699;BME280;4386;51.236;6.742;2023-03-20T05:13:46;101504.97;;;10.33;74.93
8699;BME280;4386;51.236;6.742;2023-03-20T05:14:48;101503.28;;;10.32;74.85
8699;BME280;4386;51.236;6.742;2023-03-20T05:15:52;101502.41;;;10.32;75.03
8699;BME280;4386;51.236;6.742;2023-03-20T05:17:04;101504.22;;;10.31;74.92
8699;BME280;4386;51.236;6.742;2023-03-20T05:18:07;101507.72;;;10.32;74.97
8699;BME280;4386;51.236;6.742;2023-03-20T05:19:10;101504.31;;;10.30;74.97
8699;BME280;4386;51.236;6.742;2023-03-20T05:20:13;101506.00;;;10.31;75.03
8699;BME280;4386;51.236;6.742;2023-03-20T05:21:14;101512.28;;;10.30;75.03
8699;BME280;4386;51.236;6.742;2023-03-20T05:22:17;101513.22;;;10.29;75.01
8699;BME280;4386;51.236;6.742;2023-03-20T05:23:18;101506.19;;;10.28;75.02
8699;BME280;4386;51.236;6.742;2023-03-20T05:24:21;101508.03;;;10.27;74.99
8699;BME280;4386;51.236;6.742;2023-03-20T05:25:23;101506.31;;;10.26;75.20
8699;BME280;4386;51.236;6.742;2023-03-20T05:26:25;101508.09;;;10.26;75.05
8699;BME280;4386;51.236;6.742;2023-03-20T05:27:27;101503.88;;;10.23;75.26
8699;BME280;4386;51.236;6.742;2023-03-20T05:28:29;101510.00;;;10.24;75.14
8699;BME280;4386;51.236;6.742;2023-03-20T05:29:31;101511.91;;;10.22;75.12
8699;BME280;4386;51.236;6.742;2023-03-20T05:30:44;101507.44;;;10.22;75.10
8699;BME280;4386;51.236;6.742;2023-03-20T05:31:46;101505.75;;;10.21;75.19
8699;BME280;4386;51.236;6.742;2023-03-20T05:32:54;101507.56;;;10.21;75.36
8699;BME280;4386;51.236;6.742;2023-03-20T05:33:58;101515.41;;;10.22;75.42
8699;BME280;4386;51.236;6.742;2023-03-20T05:35:01;101514.53;;;10.22;75.35
8699;BME280;4386;51.236;6.742;2023-03-20T05:36:03;101513.81;;;10.20;75.28
8699;BME280;4386;51.236;6.742;2023-03-20T05:37:06;101512.94;;;10.19;75.43
8699;BME280;4386;51.236;6.742;2023-03-20T05:38:19;101516.44;;;10.20;75.42
8699;BME280;4386;51.236;6.742;2023-03-20T05:39:22;101513.03;;;10.18;75.38
8699;BME280;4386;51.236;6.742;2023-03-20T05:40:26;101511.34;;;10.17;75.44
8699;BME280;4386;51.236;6.742;2023-03-20T05:41:27;101514.84;;;10.17;75.53
8699;BME280;4386;51.236;6.742;2023-03-20T05:42:40;101509.56;;;10.17;75.49
8699;BME280;4386;51.236;6.742;2023-03-20T05:43:42;101517.50;;;10.17;75.48
8699;BME280;4386;51.236;6.742;2023-03-20T05:44:44;101513.03;;;10.18;75.68
8699;BME280;4386;51.236;6.742;2023-03-20T05:45:47;101510.38;;;10.18;75.53
8699;BME280;4386;51.236;6.742;2023-03-20T05:46:53;101512.22;;;10.17;75.56
8699;BME280;4386;51.236;6.742;2023-03-20T05:47:54;101512.09;;;10.19;75.55
8699;BME280;4386;51.236;6.742;2023-03-20T05:49:00;101514.00;;;10.17;75.54
8699;BME280;4386;51.236;6.742;2023-03-20T05:50:02;101519.28;;;10.17;75.59
8699;BME280;4386;51.236;6.742;2023-03-20T05:51:05;101520.25;;;10.16;75.55
8699;BME280;4386;51.236;6.742;2023-03-20T05:52:07;101517.59;;;10.16;75.75
8699;BME280;4386;51.236;6.742;2023-03-20T05:53:10;101522.03;;;10.15;75.69
8699;BME280;4386;51.236;6.742;2023-03-20T05:54:12;101511.44;;;10.15;75.58
8699;BME280;4386;51.236;6.742;2023-03-20T05:55:15;101519.28;;;10.17;75.75
8699;BME280;4386;51.236;6.742;2023-03-20T05:56:17;101510.50;;;10.16;75.98
8699;BME280;4386;51.236;6.742;2023-03-20T05:57:19;101517.59;;;10.16;75.89
8699;BME280;4386;51.236;6.742;2023-03-20T05:58:21;101516.72;;;10.15;75.95
8699;BME280;4386;51.236;6.742;2023-03-20T05:59:24;101513.16;;;10.16;75.86
8699;BME280;4386;51.236;6.742;2023-03-20T06:00:25;101508.69;;;10.17;76.06
8699;BME280;4386;51.236;6.742;2023-03-20T06:01:38;101511.34;;;10.17;76.06
8699;BME280;4386;51.236;6.742;2023-03-20T06:02:51;101510.38;;;10.18;75.89
8699;BME280;4386;51.236;6.742;2023-03-20T06:03:54;101512.09;;;10.19;76.21
8699;BME280;4386;51.236;6.742;2023-03-20T06:04:55;101509.44;;;10.19;76.07
8699;BME280;4386;51.236;6.742;2023-03-20T06:05:58;101512.88;;;10.21;76.36
8699;BME280;4386;51.236;6.742;2023-03-20T06:07:00;101517.19;;;10.22;76.35
8699;BME280;4386;51.236;6.742;2023-03-20T06:08:03;101519.84;;;10.22;76.12
8699;BME280;4386;51.236;6.742;2023-03-20T06:09:05;101518.91;;;10.23;76.24
8699;BME280;4386;51.236;6.742;2023-03-20T06:10:08;101509.25;;;10.22;76.27
8699;BME280;4386;51.236;6.742;2023-03-20T06:11:10;101510.97;;;10.23;76.43
8699;BME280;4386;51.236;6.742;2023-03-20T06:12:13;101509.16;;;10.23;76.28
8699;BME280;4386;51.236;6.742;2023-03-20T06:13:15;101509.16;;;10.23;76.52
8699;BME280;4386;51.236;6.742;2023-03-20T06:14:17;101510.84;;;10.24;76.29
8699;BME280;4386;51.236;6.742;2023-03-20T06:15:19;101510.00;;;10.24;76.47
8699;BME280;4386;51.236;6.742;2023-03-20T06:16:22;101516.25;;;10.23;76.55
8699;BME280;4386;51.236;6.742;2023-03-20T06:17:24;101510.00;;;10.24;76.55
8699;BME280;4386;51.236;6.742;2023-03-20T06:18:28;101510.00;;;10.24;76.49
8699;BME280;4386;51.236;6.742;2023-03-20T06:19:31;101507.38;;;10.24;76.46
8699;BME280;4386;51.236;6.742;2023-03-20T06:20:32;101513.50;;;10.24;76.29
8699;BME280;4386;51.236;6.742;2023-03-20T06:21:35;101505.47;;;10.26;76.56
8699;BME280;4386;51.236;6.742;2023-03-20T06:22:37;101512.56;;;10.25;76.38
8699;BME280;4386;51.236;6.742;2023-03-20T06:23:39;101506.31;;;10.26;76.46
8699;BME280;4386;51.236;6.742;2023-03-20T06:24:41;101506.19;;;10.28;76.54
8699;BME280;4386;51.236;6.742;2023-03-20T06:25:44;101513.22;;;10.29;76.73
8699;BME280;4386;51.236;6.742;2023-03-20T06:26:46;101510.56;;;10.29;76.41
8699;BME280;4386;51.236;6.742;2023-03-20T06:27:59;101510.47;;;10.30;76.29
8699;BME280;4386;51.236;6.742;2023-03-20T06:29:02;101509.63;;;10.30;76.43
8699;BME280;4386;51.236;6.742;2023-03-20T06:30:05;101515.66;;;10.32;76.34
8699;BME280;4386;51.236;6.742;2023-03-20T06:31:08;101505.06;;;10.32;76.38
8699;BME280;4386;51.236;6.742;2023-03-20T06:32:10;101515.56;;;10.33;76.28
8699;BME280;4386;51.236;6.742;2023-03-20T06:33:15;101509.41;;;10.33;76.28
8699;BME280;4386;51.236;6.742;2023-03-20T06:34:20;101511.13;;;10.34;76.16
8699;BME280;4386;51.236;6.742;2023-03-20T06:35:21;101511.13;;;10.34;76.26